Time;durP1;ratioP1;P1;durP2;ratioP2;P2;SDS_P1;SDS_P2;PMS_P1;PMS_P2;Temp;Humidity;BMP_temperature;BMP_pressure;BME280_temperature;BME280_humidity;BME280_pressure;Samples;Min_cycle;Max_cycle;Signal;HPM_P1;HPM_P2
2022/09/11 00:00:58;;;;;;;1.38;0.65;;;;;;;;;;5018043;28;20080;-86
2022/09/11 00:03:24;;;;;;;1.65;0.57;;;;;;;;;;5018273;28;20044;-86
2022/09/11 00:05:50;;;;;;;1.17;0.65;;;;;;;;;;4999568;28;20037;-85
2022/09/11 00:08:18;;;;;;;1.10;0.70;;;;;;;;;;5018339;28;20103;-84
2022/09/11 00:10:47;;;;;;;1.05;0.52;;;;;;;;;;5016767;28;20033;-86
2022/09/11 00:13:21;;;;;;;2.47;0.70;;;;;;;;;;5017683;28;20471;-85
2022/09/11 00:15:49;;;;;;;1.13;0.50;;;;;;;;;;5016694;28;20521;-85
2022/09/11 00:18:20;;;;;;;3.22;0.90;;;;;;;;;;5018957;28;20034;-86
2022/09/11 00:20:53;;;;;;;1.38;0.60;;;;;;;;;;5001116;28;20044;-86
2022/09/11 00:23:21;;;;;;;1.95;0.80;;;;;;;;;;5018293;28;20433;-86
2022/09/11 00:25:47;;;;;;;0.95;0.50;;;;;;;;;;5000010;28;20080;-85
2022/09/11 00:28:19;;;;;;;0.80;0.52;;;;;;;;;;5001041;28;20487;-86
2022/09/11 00:30:47;;;;;;;0.60;0.60;;;;;;;;;;4983846;28;20037;-86
2022/09/11 00:33:14;;;;;;;1.45;0.60;;;;;;;;;;5000370;28;20521;-86
2022/09/11 00:35:40;;;;;;;2.25;0.70;;;;;;;;;;5000422;28;20033;-87
2022/09/11 00:38:07;;;;;;;1.25;0.65;;;;;;;;;;4984087;28;20025;-86
2022/09/11 00:40:44;;;;;;;1.60;0.57;;;;;;;;;;4999676;28;20049;-85
2022/09/11 00:43:09;;;;;;;1.85;0.50;;;;;;;;;;4999799;28;20034;-86
2022/09/11 00:45:35;;;;;;;1.88;0.70;;;;;;;;;;4983542;28;20037;-86
2022/09/11 00:48:02;;;;;;;2.20;0.80;;;;;;;;;;5017608;28;20048;-86
2022/09/11 00:50:30;;;;;;;1.25;0.80;;;;;;;;;;5002506;28;20399;-85
2022/09/11 00:53:06;;;;;;;2.10;0.80;;;;;;;;;;5004720;28;20042;-86
2022/09/11 00:55:36;;;;;;;3.63;0.88;;;;;;;;;;5020622;28;20030;-85
2022/09/11 00:58:08;;;;;;;2.45;0.90;;;;;;;;;;5003664;28;20481;-85
2022/09/11 01:00:34;;;;;;;0.90;0.70;;;;;;;;;;5003276;28;20029;-85
2022/09/11 01:03:00;;;;;;;1.30;0.60;;;;;;;;;;5003892;28;20061;-86
2022/09/11 01:05:33;;;;;;;2.40;0.80;;;;;;;;;;5002401;28;20491;-85
2022/09/11 01:08:02;;;;;;;1.48;0.60;;;;;;;;;;5003323;28;20030;-86
2022/09/11 01:10:46;;;;;;;1.33;0.60;;;;;;;;;;5021095;28;20450;-86
2022/09/11 01:13:17;;;;;;;0.75;0.70;;;;;;;;;;5020459;28;20107;-86
2022/09/11 01:16:03;;;;;;;2.40;0.80;;;;;;;;;;5020194;28;20487;-86
2022/09/11 01:18:40;;;;;;;1.50;0.60;;;;;;;;;;5019877;28;20044;-86
2022/09/11 01:21:12;;;;;;;4.00;0.70;;;;;;;;;;5003029;28;20480;-86
2022/09/11 01:23:54;;;;;;;0.73;0.60;;;;;;;;;;5002994;28;20509;-85
2022/09/11 01:26:38;;;;;;;1.42;0.68;;;;;;;;;;5003246;28;20030;-86
2022/09/11 01:29:06;;;;;;;0.60;0.60;;;;;;;;;;5003237;28;20541;-84
2022/09/11 01:32:10;;;;;;;1.13;0.70;;;;;;;;;;5002577;28;20038;-87
2022/09/11 01:34:54;;;;;;;2.08;0.82;;;;;;;;;;4986472;28;20042;-86
2022/09/11 01:37:38;;;;;;;1.25;0.60;;;;;;;;;;4987034;28;20033;-86
2022/09/11 01:40:13;;;;;;;1.63;0.70;;;;;;;;;;5002509;28;20040;-86
2022/09/11 01:42:42;;;;;;;3.67;0.70;;;;;;;;;;5019786;28;20033;-85
2022/09/11 01:45:10;;;;;;;0.90;0.60;;;;;;;;;;5002568;28;20125;-87
2022/09/11 01:47:37;;;;;;;0.60;0.57;;;;;;;;;;5020193;28;20033;-86
2022/09/11 01:50:07;;;;;;;0.85;0.57;;;;;;;;;;5002585;28;20029;-85
2022/09/11 01:52:39;;;;;;;1.02;0.50;;;;;;;;;;5001901;28;20030;-86
2022/09/11 01:55:16;;;;;;;1.35;0.50;;;;;;;;;;5001741;28;20038;-85
2022/09/11 01:57:49;;;;;;;2.47;0.52;;;;;;;;;;5002157;28;20041;-87
2022/09/11 02:00:15;;;;;;;;;;;;;;;;;;5002388;28;20037;-86
2022/09/11 02:02:51;;;;;;;0.82;0.45;;;;;;;;;;5019025;28;20000;-86
2022/09/11 02:05:27;;;;;;;1.05;0.60;;;;;;;;;;5001588;28;20049;-83
2022/09/11 02:07:53;;;;;;;0.50;0.43;;;;;;;;;;4985850;28;20034;-86
2022/09/11 02:10:29;;;;;;;0.77;0.60;;;;;;;;;;5001554;28;20029;-87
2022/09/11 02:13:12;;;;;;;2.15;0.60;;;;;;;;;;5001898;28;20045;-86
2022/09/11 02:15:45;;;;;;;0.68;0.50;;;;;;;;;;4985625;28;20034;-86
2022/09/11 02:18:49;;;;;;;0.75;0.57;;;;;;;;;;5001489;28;20044;-86
2022/09/11 02:21:14;;;;;;;3.70;0.65;;;;;;;;;;5014375;28;20046;-86
2022/09/11 02:23:41;;;;;;;0.55;0.50;;;;;;;;;;5001876;28;20034;-86
2022/09/11 02:26:09;;;;;;;0.60;0.50;;;;;;;;;;5000736;28;20673;-86
2022/09/11 02:28:36;;;;;;;3.03;0.50;;;;;;;;;;5001222;28;20072;-86
2022/09/11 02:31:03;;;;;;;0.95;0.47;;;;;;;;;;5001111;28;20038;-86
2022/09/11 02:33:34;;;;;;;1.38;0.45;;;;;;;;;;5001340;28;20037;-85
2022/09/11 02:36:25;;;;;;;0.95;0.40;;;;;;;;;;5000645;28;20033;-86
2022/09/11 02:39:14;;;;;;;2.55;0.50;;;;;;;;;;4971641;28;20042;-85
2022/09/11 02:41:58;;;;;;;1.90;0.45;;;;;;;;;;5001331;28;20030;-85
2022/09/11 02:44:36;;;;;;;1.92;0.52;;;;;;;;;;4984625;28;20033;-85
2022/09/11 02:47:04;;;;;;;0.43;0.43;;;;;;;;;;5001649;28;20087;-85
2022/09/11 02:49:45;;;;;;;1.58;0.60;;;;;;;;;;5001301;28;20029;-85
2022/09/11 02:52:36;;;;;;;0.88;0.52;;;;;;;;;;5001127;28;20069;-85
2022/09/11 02:55:30;;;;;;;1.15;0.68;;;;;;;;;;4984191;28;20116;-86
2022/09/11 02:58:02;;;;;;;1.80;0.40;;;;;;;;;;4984429;28;20041;-86
2022/09/11 03:00:30;;;;;;;3.80;0.60;;;;;;;;;;5000907;28;20037;-85
2022/09/11 03:02:56;;;;;;;1.92;0.68;;;;;;;;;;5001908;28;20133;-85
2022/09/11 03:05:22;;;;;;;1.35;0.60;;;;;;;;;;5000589;28;20042;-86
2022/09/11 03:07:48;;;;;;;0.70;0.60;;;;;;;;;;5001263;28;20125;-86
2022/09/11 03:10:13;;;;;;;3.20;0.60;;;;;;;;;;5000286;28;20030;-85
2022/09/11 03:12:40;;;;;;;0.50;0.50;;;;;;;;;;5000729;28;20034;-84
2022/09/11 03:15:09;;;;;;;0.90;0.60;;;;;;;;;;5000349;28;20040;-86
2022/09/11 03:17:35;;;;;;;1.27;0.50;;;;;;;;;;4984279;28;20033;-86
2022/09/11 03:20:02;;;;;;;2.30;0.60;;;;;;;;;;5000731;28;20037;-86
2022/09/11 03:22:28;;;;;;;0.90;0.50;;;;;;;;;;5000890;28;20042;-85
2022/09/11 03:24:53;;;;;;;2.90;1.38;;;;;;;;;;5000035;28;20064;-86
2022/09/11 03:27:20;;;;;;;2.55;1.23;;;;;;;;;;5000929;28;20037;-86
2022/09/11 03:29:46;;;;;;;2.75;1.42;;;;;;;;;;5000753;28;20083;-85
2022/09/11 03:32:12;;;;;;;2.75;0.60;;;;;;;;;;5000747;28;20026;-86
2022/09/11 03:34:38;;;;;;;2.03;0.70;;;;;;;;;;5000198;28;20572;-85
2022/09/11 03:37:03;;;;;;;3.67;0.60;;;;;;;;;;5000075;28;20557;-86
2022/09/11 03:39:29;;;;;;;2.22;0.70;;;;;;;;;;5000743;28;20034;-86
2022/09/11 03:41:57;;;;;;;0.80;0.40;;;;;;;;;;5000724;28;20037;-86
2022/09/11 03:44:23;;;;;;;1.08;0.57;;;;;;;;;;5018078;28;20030;-85
2022/09/11 03:46:48;;;;;;;2.25;0.77;;;;;;;;;;5001146;28;20038;-85
2022/09/11 03:49:14;;;;;;;2.25;0.47;;;;;;;;;;5000618;28;20124;-85
2022/09/11 03:51:40;;;;;;;2.00;0.57;;;;;;;;;;5000585;28;20026;-86
2022/09/11 03:54:06;;;;;;;1.83;0.60;;;;;;;;;;4999204;28;20096;-84
2022/09/11 03:56:32;;;;;;;0.93;0.68;;;;;;;;;;5000226;28;20038;-86
2022/09/11 03:58:59;;;;;;;3.72;0.68;;;;;;;;;;5000663;28;20025;-86
2022/09/11 04:01:25;;;;;;;1.42;0.68;;;;;;;;;;5000392;28;20033;-85
2022/09/11 04:03:51;;;;;;;2.10;0.63;;;;;;;;;;5000370;28;20033;-86
2022/09/11 04:06:25;;;;;;;0.77;0.60;;;;;;;;;;5000266;28;20034;-86
2022/09/11 04:08:53;;;;;;;0.90;0.73;;;;;;;;;;4984563;28;20030;-85
2022/09/11 04:11:19;;;;;;;1.00;0.60;;;;;;;;;;4999491;28;20048;-86
2022/09/11 04:13:45;;;;;;;0.77;0.52;;;;;;;;;;4984060;28;20030;-85
2022/09/11 04:16:15;;;;;;;0.75;0.50;;;;;;;;;;4999729;28;20044;-86
2022/09/11 04:18:45;;;;;;;1.65;0.70;;;;;;;;;;4984368;28;20030;-86
2022/09/11 04:21:13;;;;;;;1.30;0.60;;;;;;;;;;5000200;28;20036;-85
2022/09/11 04:23:40;;;;;;;1.52;0.50;;;;;;;;;;5000208;28;20034;-85
2022/09/11 04:26:18;;;;;;;2.38;0.70;;;;;;;;;;4985105;28;20041;-86
2022/09/11 04:28:46;;;;;;;2.55;1.00;;;;;;;;;;5003949;28;20038;-87
2022/09/11 04:31:14;;;;;;;0.75;0.70;;;;;;;;;;5003715;28;20061;-86
2022/09/11 04:33:40;;;;;;;0.85;0.60;;;;;;;;;;5004001;28;20030;-86
2022/09/11 04:36:08;;;;;;;0.90;0.70;;;;;;;;;;5003170;28;20499;-85
2022/09/11 04:38:35;;;;;;;1.05;0.70;;;;;;;;;;5003568;28;20040;-85
2022/09/11 04:41:02;;;;;;;3.45;0.70;;;;;;;;;;5003507;28;20072;-85
2022/09/11 04:43:29;;;;;;;4.80;0.93;;;;;;;;;;5003398;28;20092;-86
2022/09/11 04:46:07;;;;;;;1.27;0.82;;;;;;;;;;5002949;28;20038;-85
2022/09/11 04:48:33;;;;;;;0.75;0.60;;;;;;;;;;5021506;28;20117;-84
2022/09/11 04:51:04;;;;;;;2.38;0.43;;;;;;;;;;5003438;28;20025;-86
2022/09/11 04:53:31;;;;;;;0.85;0.50;;;;;;;;;;5003872;28;20505;-86
2022/09/11 04:56:01;;;;;;;2.13;0.82;;;;;;;;;;4987239;28;20510;-86
2022/09/11 04:58:32;;;;;;;3.03;0.82;;;;;;;;;;5005404;28;20113;-85
2022/09/11 05:00:58;;;;;;;0.90;0.70;;;;;;;;;;5021696;28;20077;-85
2022/09/11 05:03:23;;;;;;;2.03;0.75;;;;;;;;;;5003566;28;20065;-85
2022/09/11 05:05:49;;;;;;;0.65;0.57;;;;;;;;;;5003435;28;20036;-84
2022/09/11 05:08:17;;;;;;;1.13;0.70;;;;;;;;;;4988028;28;20034;-85
2022/09/11 05:10:43;;;;;;;2.47;0.82;;;;;;;;;;4986591;28;20030;-85
2022/09/11 05:13:10;;;;;;;2.72;0.75;;;;;;;;;;5003843;28;20034;-86
2022/09/11 05:15:36;;;;;;;1.10;0.60;;;;;;;;;;5003129;28;20041;-86
2022/09/11 05:18:03;;;;;;;2.38;0.90;;;;;;;;;;5003956;28;20037;-86
2022/09/11 05:20:29;;;;;;;2.25;0.65;;;;;;;;;;5003708;28;20034;-85
2022/09/11 05:22:57;;;;;;;1.02;0.60;;;;;;;;;;5003454;28;20054;-86
2022/09/11 05:25:24;;;;;;;0.60;0.60;;;;;;;;;;5003076;28;20041;-87
2022/09/11 05:27:50;;;;;;;1.88;0.75;;;;;;;;;;4987740;28;20034;-86
2022/09/11 05:30:16;;;;;;;2.35;0.60;;;;;;;;;;5021586;28;20040;-85
2022/09/11 05:32:42;;;;;;;1.15;0.70;;;;;;;;;;5020832;28;20037;-86
2022/09/11 05:35:08;;;;;;;2.25;0.80;;;;;;;;;;5002967;28;20040;-86
2022/09/11 05:37:33;;;;;;;3.03;0.60;;;;;;;;;;5019708;28;20494;-84
2022/09/11 05:39:59;;;;;;;1.15;0.60;;;;;;;;;;5010963;28;20038;-86
2022/09/11 05:42:27;;;;;;;0.50;0.50;;;;;;;;;;5022670;28;20034;-86
2022/09/11 05:44:53;;;;;;;0.88;0.60;;;;;;;;;;5013719;28;20037;-87
2022/09/11 05:47:20;;;;;;;1.13;0.60;;;;;;;;;;5018215;28;20108;-85
2022/09/11 05:49:48;;;;;;;1.83;0.60;;;;;;;;;;5020942;28;20413;-85
2022/09/11 05:52:14;;;;;;;0.95;0.70;;;;;;;;;;5019275;28;20053;-86
2022/09/11 05:54:40;;;;;;;0.70;0.70;;;;;;;;;;5004437;28;20116;-86
2022/09/11 05:57:06;;;;;;;0.63;0.55;;;;;;;;;;5005650;28;20049;-85
2022/09/11 05:59:31;;;;;;;1.05;0.60;;;;;;;;;;4989982;28;20791;-83
2022/09/11 06:01:57;;;;;;;0.60;0.60;;;;;;;;;;5007015;28;20029;-84
2022/09/11 06:04:39;;;;;;;2.33;0.65;;;;;;;;;;5007151;28;20041;-84
2022/09/11 06:07:06;;;;;;;2.33;0.70;;;;;;;;;;5017773;28;20393;-84
2022/09/11 06:09:33;;;;;;;0.43;0.43;;;;;;;;;;5008881;28;20065;-84
2022/09/11 06:12:00;;;;;;;2.05;0.57;;;;;;;;;;5035567;28;20097;-84
2022/09/11 06:14:26;;;;;;;0.95;0.60;;;;;;;;;;5036121;28;20077;-84
2022/09/11 06:16:53;;;;;;;0.50;0.50;;;;;;;;;;5025879;28;20030;-84
2022/09/11 06:19:18;;;;;;;2.05;0.70;;;;;;;;;;5021832;28;20038;-83
2022/09/11 06:21:45;;;;;;;0.77;0.60;;;;;;;;;;5019160;28;20490;-85
2022/09/11 06:24:27;;;;;;;1.48;0.70;;;;;;;;;;5004923;28;20094;-83
2022/09/11 06:26:54;;;;;;;1.15;0.63;;;;;;;;;;5019731;28;20037;-83
2022/09/11 06:29:20;;;;;;;1.38;0.50;;;;;;;;;;5002463;28;20494;-84
2022/09/11 06:31:50;;;;;;;2.08;0.60;;;;;;;;;;5002677;28;20033;-84
2022/09/11 06:34:18;;;;;;;0.95;0.70;;;;;;;;;;5018168;28;20033;-84
2022/09/11 06:36:45;;;;;;;1.30;0.50;;;;;;;;;;5018861;28;20036;-84
2022/09/11 06:39:11;;;;;;;0.88;0.52;;;;;;;;;;5036910;28;20032;-84
2022/09/11 06:41:37;;;;;;;1.95;0.68;;;;;;;;;;5017600;28;20801;-85
2022/09/11 06:44:09;;;;;;;1.63;0.60;;;;;;;;;;5017465;28;20044;-83
2022/09/11 06:46:36;;;;;;;1.73;0.70;;;;;;;;;;5018959;28;20037;-83
2022/09/11 06:49:02;;;;;;;0.60;0.60;;;;;;;;;;5018478;28;20041;-84
2022/09/11 06:51:28;;;;;;;1.25;0.70;;;;;;;;;;5018159;28;20087;-84
2022/09/11 06:53:57;;;;;;;2.17;0.68;;;;;;;;;;5018897;28;20040;-83
2022/09/11 06:56:25;;;;;;;1.05;0.60;;;;;;;;;;5019092;28;20514;-85
2022/09/11 06:58:51;;;;;;;1.50;0.55;;;;;;;;;;5019556;28;20620;-85
2022/09/11 07:01:21;;;;;;;0.70;0.70;;;;;;;;;;5019431;28;20410;-84
2022/09/11 07:03:53;;;;;;;1.55;0.57;;;;;;;;;;5002486;28;20116;-85
2022/09/11 07:06:23;;;;;;;1.85;0.70;;;;;;;;;;5016930;28;20037;-84
2022/09/11 07:09:01;;;;;;;2.35;0.70;;;;;;;;;;5001363;28;20061;-84
2022/09/11 07:11:33;;;;;;;1.60;0.75;;;;;;;;;;5015697;28;20835;-83
2022/09/11 07:14:04;;;;;;;2.13;1.20;;;;;;;;;;5012491;28;20030;-83
2022/09/11 07:16:31;;;;;;;1.00;0.70;;;;;;;;;;4998479;28;20029;-86
2022/09/11 07:18:57;;;;;;;2.90;0.90;;;;;;;;;;5017875;28;20021;-85
2022/09/11 07:21:25;;;;;;;0.98;0.65;;;;;;;;;;5017619;28;20524;-85
2022/09/11 07:23:57;;;;;;;;;;;;;;;;;;5018069;28;20033;-82
2022/09/11 07:26:25;;;;;;;1.67;0.77;;;;;;;;;;5027084;28;20012;-86
2022/09/11 07:28:57;;;;;;;1.23;0.80;;;;;;;;;;4984057;28;20026;-86
2022/09/11 07:31:28;;;;;;;1.95;0.70;;;;;;;;;;5006377;28;20069;-84
2022/09/11 07:33:55;;;;;;;2.33;0.80;;;;;;;;;;5015073;28;20071;-84
2022/09/11 07:36:25;;;;;;;2.05;0.80;;;;;;;;;;5001990;28;20625;-84
2022/09/11 07:38:53;;;;;;;0.98;0.80;;;;;;;;;;4997671;28;20029;-84
2022/09/11 07:41:22;;;;;;;1.05;0.70;;;;;;;;;;5023687;28;20021;-84
2022/09/11 07:43:52;;;;;;;1.50;0.75;;;;;;;;;;5013344;28;20041;-84
2022/09/11 07:46:18;;;;;;;0.70;0.63;;;;;;;;;;5009993;28;20517;-85
2022/09/11 07:48:44;;;;;;;1.67;0.77;;;;;;;;;;5007941;28;20038;-84
2022/09/11 07:51:12;;;;;;;1.63;1.00;;;;;;;;;;4998224;28;20036;-85
2022/09/11 07:53:40;;;;;;;1.40;0.70;;;;;;;;;;5013820;28;20069;-84
2022/09/11 07:56:08;;;;;;;1.63;0.77;;;;;;;;;;5004473;28;20029;-84
2022/09/11 07:58:36;;;;;;;3.53;0.80;;;;;;;;;;5017991;28;20029;-85
2022/09/11 08:01:06;;;;;;;2.78;0.75;;;;;;;;;;5017945;28;20057;-86
2022/09/11 08:03:33;;;;;;;0.70;0.70;;;;;;;;;;5037006;28;20037;-86
2022/09/11 08:06:09;;;;;;;3.33;0.80;;;;;;;;;;5020216;28;20021;-85
2022/09/11 08:08:36;;;;;;;1.33;0.80;;;;;;;;;;5001439;28;20128;-85
2022/09/11 08:11:06;;;;;;;1.73;0.70;;;;;;;;;;5015926;28;20129;-84
2022/09/11 08:13:33;;;;;;;1.05;0.80;;;;;;;;;;5017514;28;20120;-85
2022/09/11 08:15:58;;;;;;;3.15;1.08;;;;;;;;;;5016557;28;20498;-84
2022/09/11 08:18:24;;;;;;;1.92;1.00;;;;;;;;;;5017009;28;20029;-85
2022/09/11 08:20:50;;;;;;;1.25;0.80;;;;;;;;;;5017339;28;20033;-85
2022/09/11 08:23:18;;;;;;;1.02;0.70;;;;;;;;;;5016927;28;20036;-85
2022/09/11 08:25:44;;;;;;;1.17;0.90;;;;;;;;;;5016639;28;20128;-85
2022/09/11 08:28:10;;;;;;;1.13;0.80;;;;;;;;;;5017473;28;20053;-85
2022/09/11 08:30:38;;;;;;;1.60;1.10;;;;;;;;;;5017492;28;20474;-85
2022/09/11 08:33:05;;;;;;;1.20;0.80;;;;;;;;;;5017508;28;20490;-85
2022/09/11 08:35:34;;;;;;;1.17;0.70;;;;;;;;;;5016719;28;20034;-85
2022/09/11 08:38:01;;;;;;;1.58;0.95;;;;;;;;;;5017147;28;20034;-86
2022/09/11 08:40:29;;;;;;;1.45;1.00;;;;;;;;;;5000699;28;20037;-85
2022/09/11 08:43:02;;;;;;;1.33;0.82;;;;;;;;;;5001539;28;20033;-84
2022/09/11 08:45:33;;;;;;;2.20;0.93;;;;;;;;;;5016435;28;20120;-84
2022/09/11 08:48:00;;;;;;;2.58;0.90;;;;;;;;;;5016940;28;20033;-85
2022/09/11 08:50:33;;;;;;;1.13;0.80;;;;;;;;;;5016294;28;20048;-84
2022/09/11 08:53:01;;;;;;;1.23;0.80;;;;;;;;;;4999834;28;20025;-85
2022/09/11 08:55:42;;;;;;;1.67;0.90;;;;;;;;;;5015372;28;20276;-84
2022/09/11 08:58:44;;;;;;;1.83;0.80;;;;;;;;;;5015573;28;20048;-84
2022/09/11 09:01:39;;;;;;;4.07;0.90;;;;;;;;;;4999804;28;20459;-83
2022/09/11 09:04:27;;;;;;;1.58;1.00;;;;;;;;;;5014783;28;20108;-84
2022/09/11 09:07:03;;;;;;;1.40;0.93;;;;;;;;;;5015821;28;20034;-84
2022/09/11 09:09:35;;;;;;;1.77;1.10;;;;;;;;;;5015790;28;20064;-84
2022/09/11 09:12:19;;;;;;;2.17;1.20;;;;;;;;;;4999033;28;20410;-84
2022/09/11 09:14:45;;;;;;;4.20;1.00;;;;;;;;;;5018188;28;20456;-83
2022/09/11 09:17:38;;;;;;;1.60;0.95;;;;;;;;;;5019437;28;20037;-84
2022/09/11 09:20:11;;;;;;;1.92;1.00;;;;;;;;;;5027812;28;20037;-85
2022/09/11 09:22:46;;;;;;;3.65;1.10;;;;;;;;;;5018931;28;20039;-84
2022/09/11 09:25:18;;;;;;;1.60;1.00;;;;;;;;;;5018127;28;20046;-84
2022/09/11 09:27:50;;;;;;;1.38;1.00;;;;;;;;;;5018849;28;20064;-84
2022/09/11 09:30:28;;;;;;;2.45;1.30;;;;;;;;;;5018565;28;20083;-84
2022/09/11 09:33:02;;;;;;;3.22;1.40;;;;;;;;;;5002261;28;20030;-85
2022/09/11 09:35:39;;;;;;;1.50;1.02;;;;;;;;;;5018348;28;20034;-86
2022/09/11 09:38:31;;;;;;;2.28;1.42;;;;;;;;;;5002618;28;20033;-84
2022/09/11 09:41:08;;;;;;;1.33;1.05;;;;;;;;;;5031095;28;20129;-85
2022/09/11 09:43:43;;;;;;;1.65;1.10;;;;;;;;;;5018446;28;20036;-85
2022/09/11 09:46:24;;;;;;;3.83;1.50;;;;;;;;;;5017680;28;20080;-85
2022/09/11 09:48:50;;;;;;;2.20;1.30;;;;;;;;;;5036288;28;20048;-85
2022/09/11 09:51:16;;;;;;;1.50;1.20;;;;;;;;;;5035709;28;20071;-84
2022/09/11 09:53:48;;;;;;;2.15;1.20;;;;;;;;;;5018219;28;20068;-85
2022/09/11 09:56:17;;;;;;;2.40;1.15;;;;;;;;;;5035457;28;20041;-86
2022/09/11 09:59:18;;;;;;;1.42;1.20;;;;;;;;;;5035751;28;20037;-85
2022/09/11 10:01:48;;;;;;;3.00;1.38;;;;;;;;;;5030118;28;20065;-85
2022/09/11 10:04:21;;;;;;;1.70;1.30;;;;;;;;;;5034920;28;20474;-85
2022/09/11 10:06:50;;;;;;;6.50;2.75;;;;;;;;;;5002905;28;20076;-85
2022/09/11 10:09:22;;;;;;;3.28;1.70;;;;;;;;;;4933947;28;20041;-85
2022/09/11 10:11:54;;;;;;;2.35;1.35;;;;;;;;;;5036236;28;20025;-84
2022/09/11 10:14:21;;;;;;;1.45;1.20;;;;;;;;;;5037052;28;20037;-84
2022/09/11 10:16:52;;;;;;;1.95;1.52;;;;;;;;;;5018659;28;20064;-84
2022/09/11 10:19:39;;;;;;;3.78;1.40;;;;;;;;;;5019966;28;20422;-83
2022/09/11 10:22:24;;;;;;;3.22;1.55;;;;;;;;;;5019910;28;20139;-84
2022/09/11 10:25:12;;;;;;;2.33;1.40;;;;;;;;;;5036238;28;20091;-83
2022/09/11 10:27:47;;;;;;;2.00;1.60;;;;;;;;;;5037159;28;20041;-84
2022/09/11 10:30:34;;;;;;;3.80;1.77;;;;;;;;;;5019672;28;20417;-84
2022/09/11 10:33:36;;;;;;;2.60;1.45;;;;;;;;;;5036191;28;20490;-84
2022/09/11 10:36:05;;;;;;;2.47;1.70;;;;;;;;;;5019097;28;20041;-82
2022/09/11 10:38:51;;;;;;;2.28;1.60;;;;;;;;;;5002975;28;20160;-83
2022/09/11 10:41:31;;;;;;;3.60;1.98;;;;;;;;;;5018391;28;20087;-85
2022/09/11 10:44:05;;;;;;;4.32;2.10;;;;;;;;;;5018025;28;20057;-83
2022/09/11 10:46:35;;;;;;;3.65;1.60;;;;;;;;;;5037003;28;20095;-84
2022/09/11 10:49:04;;;;;;;6.32;1.90;;;;;;;;;;5035919;28;20041;-86
2022/09/11 10:51:38;;;;;;;3.10;1.45;;;;;;;;;;5018102;28;20033;-83
2022/09/11 10:54:43;;;;;;;4.95;2.10;;;;;;;;;;4981216;28;20138;-84
2022/09/11 10:57:33;;;;;;;3.55;2.42;;;;;;;;;;4992977;28;20054;-85
2022/09/11 11:00:16;;;;;;;3.50;1.90;;;;;;;;;;5014428;28;20388;-84
2022/09/11 11:02:45;;;;;;;4.55;2.13;;;;;;;;;;5016095;28;20472;-85
2022/09/11 11:05:29;;;;;;;6.68;2.28;;;;;;;;;;5015157;28;20080;-84
2022/09/11 11:08:16;;;;;;;4.15;2.40;;;;;;;;;;5015578;28;20058;-84
2022/09/11 11:10:50;;;;;;;4.15;2.25;;;;;;;;;;5013804;28;20105;-84
2022/09/11 11:13:50;;;;;;;3.63;2.50;;;;;;;;;;5015335;28;20418;-84
2022/09/11 11:16:19;;;;;;;2.88;2.08;;;;;;;;;;5013013;28;20125;-83
2022/09/11 11:19:21;;;;;;;5.28;2.50;;;;;;;;;;5014978;28;20033;-84
2022/09/11 11:21:47;;;;;;;5.65;2.63;;;;;;;;;;5018103;28;20038;-86
2022/09/11 11:24:20;;;;;;;7.43;3.80;;;;;;;;;;5015292;28;20039;-85
2022/09/11 11:27:06;;;;;;;5.53;2.83;;;;;;;;;;5013886;28;20034;-84
2022/09/11 11:29:32;;;;;;;4.35;2.60;;;;;;;;;;5014902;28;20033;-85
2022/09/11 11:32:19;;;;;;;4.00;2.30;;;;;;;;;;5007011;28;20147;-85
2022/09/11 11:35:08;;;;;;;3.63;2.28;;;;;;;;;;4998986;28;20041;-86
2022/09/11 11:37:40;;;;;;;4.05;2.72;;;;;;;;;;4995756;28;20092;-85
2022/09/11 11:40:17;;;;;;;4.53;2.90;;;;;;;;;;4995239;28;20077;-85
2022/09/11 11:42:58;;;;;;;3.92;2.90;;;;;;;;;;4993817;28;20041;-86
2022/09/11 11:45:31;;;;;;;3.40;2.60;;;;;;;;;;4993399;28;20410;-85
2022/09/11 11:48:04;;;;;;;4.32;2.92;;;;;;;;;;4995578;28;20038;-85
2022/09/11 11:50:39;;;;;;;3.90;2.50;;;;;;;;;;4977771;28;20117;-84
2022/09/11 11:53:37;;;;;;;4.28;2.50;;;;;;;;;;4995040;28;20491;-85
2022/09/11 11:56:06;;;;;;;3.22;2.47;;;;;;;;;;4994573;28;20522;-85
2022/09/11 11:58:46;;;;;;;4.63;2.30;;;;;;;;;;4994907;28;20053;-85
2022/09/11 12:01:43;;;;;;;4.57;2.17;;;;;;;;;;4995033;28;20038;-86
2022/09/11 12:04:20;;;;;;;4.95;2.30;;;;;;;;;;4995887;28;20030;-85
2022/09/11 12:06:46;;;;;;;7.22;2.30;;;;;;;;;;4993840;28;20038;-85
2022/09/11 12:09:15;;;;;;;3.03;2.13;;;;;;;;;;4995022;28;20041;-85
2022/09/11 12:11:44;;;;;;;3.35;2.22;;;;;;;;;;4992275;28;20043;-85
2022/09/11 12:14:32;;;;;;;3.80;2.35;;;;;;;;;;4994608;28;20042;-85
2022/09/11 12:17:17;;;;;;;4.85;2.33;;;;;;;;;;4995551;28;20038;-88
2022/09/11 12:20:10;;;;;;;3.35;2.25;;;;;;;;;;5002602;28;20395;-85
2022/09/11 12:22:39;;;;;;;4.90;2.30;;;;;;;;;;5001455;28;20046;-84
2022/09/11 12:25:26;;;;;;;4.28;2.40;;;;;;;;;;5001364;28;20072;-85
2022/09/11 12:28:19;;;;;;;3.63;2.00;;;;;;;;;;4984533;28;20034;-85
2022/09/11 12:31:04;;;;;;;3.53;2.17;;;;;;;;;;5001686;28;20031;-85
2022/09/11 12:33:48;;;;;;;4.57;2.20;;;;;;;;;;5001544;28;20085;-85
2022/09/11 12:36:21;;;;;;;3.05;2.30;;;;;;;;;;4999508;28;20049;-86
2022/09/11 12:38:52;;;;;;;3.45;1.80;;;;;;;;;;4998507;28;20104;-86
2022/09/11 12:41:26;;;;;;;2.88;2.15;;;;;;;;;;4998380;28;20043;-84
2022/09/11 12:43:53;;;;;;;4.15;2.13;;;;;;;;;;4999846;28;20538;-84
2022/09/11 12:46:21;;;;;;;2.78;1.77;;;;;;;;;;5010948;28;20124;-85
2022/09/11 12:48:59;;;;;;;2.60;1.73;;;;;;;;;;5016590;28;20031;-85
2022/09/11 12:51:33;;;;;;;2.80;1.88;;;;;;;;;;5016374;28;20057;-85
2022/09/11 12:54:00;;;;;;;;;;;;;;;;;;5013939;28;20042;-85
2022/09/11 12:56:30;;;;;;;1.83;1.60;;;;;;;;;;5017347;28;19928;-85
2022/09/11 12:58:58;;;;;;;3.15;1.98;;;;;;;;;;5021223;28;20060;-84
2022/09/11 13:01:31;;;;;;;2.10;1.80;;;;;;;;;;5020583;28;20041;-85
2022/09/11 13:04:00;;;;;;;2.70;1.85;;;;;;;;;;5021553;28;20541;-84
2022/09/11 13:06:43;;;;;;;2.67;2.15;;;;;;;;;;5021693;28;20069;-85
2022/09/11 13:09:20;;;;;;;3.25;1.85;;;;;;;;;;5021224;28;20022;-86
2022/09/11 13:11:49;;;;;;;2.35;1.92;;;;;;;;;;5021191;28;20034;-83
2022/09/11 13:14:29;;;;;;;2.45;1.75;;;;;;;;;;5020520;28;20402;-86
2022/09/11 13:17:00;;;;;;;3.25;1.90;;;;;;;;;;5018775;28;20034;-83
2022/09/11 13:19:34;;;;;;;3.78;2.00;;;;;;;;;;5021690;28;20038;-85
2022/09/11 13:22:00;;;;;;;2.40;2.00;;;;;;;;;;5013112;28;20061;-85
2022/09/11 13:24:30;;;;;;;3.13;1.85;;;;;;;;;;5019470;28;20509;-84
2022/09/11 13:27:07;;;;;;;3.15;2.08;;;;;;;;;;5017123;28;20137;-86
2022/09/11 13:29:36;;;;;;;2.30;1.90;;;;;;;;;;5017428;28;20046;-85
2022/09/11 13:32:12;;;;;;;3.72;2.17;;;;;;;;;;5026202;28;20033;-85
2022/09/11 13:34:42;;;;;;;2.40;2.10;;;;;;;;;;5024870;28;20040;-84
2022/09/11 13:37:11;;;;;;;2.38;1.65;;;;;;;;;;5023402;28;20064;-84
2022/09/11 13:39:41;;;;;;;3.50;2.30;;;;;;;;;;5019384;28;20069;-86
2022/09/11 13:42:14;;;;;;;3.72;2.40;;;;;;;;;;5023641;28;20461;-85
2022/09/11 13:44:46;;;;;;;3.00;2.20;;;;;;;;;;5018307;28;20037;-85
2022/09/11 13:47:19;;;;;;;8.00;7.20;;;;;;;;;;5018244;28;20038;-83
2022/09/11 13:49:49;;;;;;;2.97;2.10;;;;;;;;;;5022109;28;20033;-85
2022/09/11 13:52:15;;;;;;;3.80;2.20;;;;;;;;;;5023546;28;20046;-84
2022/09/11 13:54:49;;;;;;;3.28;1.90;;;;;;;;;;5023922;28;20034;-86
2022/09/11 13:57:33;;;;;;;4.15;2.15;;;;;;;;;;5025045;28;20130;-85
2022/09/11 13:59:59;;;;;;;2.72;1.80;;;;;;;;;;5019752;28;20064;-85
2022/09/11 14:02:33;;;;;;;2.42;1.70;;;;;;;;;;5022668;28;20038;-84
2022/09/11 14:05:20;;;;;;;2.30;1.65;;;;;;;;;;5012525;28;20041;-83
2022/09/11 14:07:57;;;;;;;4.32;2.05;;;;;;;;;;5020517;28;20116;-85
2022/09/11 14:10:42;;;;;;;2.25;1.45;;;;;;;;;;5021901;28;20048;-83
2022/09/11 14:13:29;;;;;;;3.28;1.40;;;;;;;;;;5020570;28;20053;-86
2022/09/11 14:16:00;;;;;;;1.58;1.05;;;;;;;;;;5006745;28;20034;-86
2022/09/11 14:18:32;;;;;;;2.08;1.27;;;;;;;;;;5009359;28;20046;-83
2022/09/11 14:21:00;;;;;;;1.40;1.20;;;;;;;;;;5013634;28;20052;-85
2022/09/11 14:23:27;;;;;;;1.20;1.10;;;;;;;;;;5013075;28;20030;-85
2022/09/11 14:26:23;;;;;;;1.60;1.25;;;;;;;;;;5001416;28;20116;-85
2022/09/11 14:29:21;;;;;;;1.45;1.25;;;;;;;;;;5018573;28;20057;-86
2022/09/11 14:31:47;;;;;;;2.28;1.50;;;;;;;;;;5018637;28;20042;-85
2022/09/11 14:34:20;;;;;;;2.47;1.30;;;;;;;;;;5017137;28;20029;-86
2022/09/11 14:36:51;;;;;;;2.00;1.35;;;;;;;;;;5016747;28;20033;-83
2022/09/11 14:39:39;;;;;;;2.40;1.48;;;;;;;;;;5013266;28;20033;-84
2022/09/11 14:42:12;;;;;;;3.80;2.25;;;;;;;;;;5015154;28;20026;-84
2022/09/11 14:44:39;;;;;;;3.67;2.17;;;;;;;;;;5009467;28;20052;-86
2022/09/11 14:47:04;;;;;;;3.58;2.88;;;;;;;;;;5014047;28;20368;-85
2022/09/11 14:49:30;;;;;;;2.72;2.20;;;;;;;;;;5014847;28;20513;-83
2022/09/11 14:51:59;;;;;;;2.70;1.40;;;;;;;;;;5000276;28;20042;-85
2022/09/11 14:54:29;;;;;;;5.97;3.78;;;;;;;;;;4998320;28;20057;-85
2022/09/11 14:56:55;;;;;;;2.67;1.63;;;;;;;;;;5000694;28;20038;-84
2022/09/11 14:59:21;;;;;;;1.92;1.20;;;;;;;;;;5000760;28;20041;-84
2022/09/11 15:01:46;;;;;;;2.05;1.38;;;;;;;;;;5000388;28;20027;-85
2022/09/11 15:04:20;;;;;;;2.40;2.00;;;;;;;;;;5007429;28;20041;-85
2022/09/11 15:06:51;;;;;;;2.22;1.75;;;;;;;;;;5019963;28;20045;-85
2022/09/11 15:09:17;;;;;;;2.42;1.42;;;;;;;;;;5019884;28;20091;-85
2022/09/11 15:11:43;;;;;;;3.05;1.40;;;;;;;;;;5016942;28;20038;-84
2022/09/11 15:14:10;;;;;;;2.42;1.70;;;;;;;;;;5019171;28;20084;-84